createdAt,value
2022-08-17T09:53:31.951Z,12360.00
2022-08-17T09:54:40.177Z,14580.00
2022-08-17T09:55:31.485Z,17152.00
2022-08-17T09:56:31.468Z,18336.00
2022-08-17T09:57:32.367Z,18528.00
2022-08-17T09:58:31.451Z,18336.00
2022-08-17T09:59:37.112Z,18016.00
2022-08-17T10:00:31.411Z,18048.00
2022-08-17T10:01:31.539Z,18016.00
2022-08-17T10:02:31.395Z,17760.00
2022-08-17T10:03:31.380Z,18016.00
2022-08-17T10:04:31.365Z,18080.00
2022-08-17T10:05:31.341Z,18496.00
2022-08-17T10:06:31.339Z,19808.00
2022-08-17T10:07:31.315Z,21280.00
2022-08-17T10:08:31.316Z,22368.00
2022-08-17T10:09:31.288Z,21664.00
2022-08-17T10:10:32.422Z,20416.00
2022-08-17T10:11:33.445Z,19520.00
2022-08-17T10:12:31.250Z,19680.00
2022-08-17T10:13:31.447Z,20576.00
2022-08-17T10:14:36.406Z,21312.00
2022-08-17T10:15:31.226Z,20288.00
2022-08-17T10:16:31.205Z,18720.00
2022-08-17T10:17:31.189Z,17632.00
2022-08-17T10:18:33.145Z,15820.00
2022-08-17T10:19:31.177Z,14064.00
2022-08-17T10:20:31.161Z,13416.00
2022-08-17T10:21:31.146Z,13360.00
2022-08-17T10:22:35.259Z,13024.00
2022-08-17T10:23:31.124Z,11748.00
2022-08-17T10:24:31.146Z,10712.00
2022-08-17T10:25:49.044Z,10020.00
2022-08-17T10:26:40.330Z,9960.00
2022-08-17T10:39:07.392Z,12600.00
2022-08-17T10:40:07.416Z,13568.00
2022-08-17T10:41:07.353Z,14520.00
2022-08-17T10:42:07.343Z,15548.00
2022-08-17T10:43:07.327Z,16176.00
2022-08-17T10:44:38.932Z,16436.00
2022-08-17T10:45:07.303Z,16468.00
2022-08-17T10:46:27.717Z,16544.00
2022-08-17T10:47:07.294Z,16640.00
2022-08-17T10:48:07.638Z,16864.00
2022-08-17T10:49:07.257Z,17216.00
2022-08-17T10:50:07.247Z,17760.00
2022-08-17T10:51:07.228Z,18400.00
2022-08-17T10:52:07.213Z,19136.00
2022-08-17T10:53:07.220Z,19872.00
2022-08-17T10:54:07.198Z,20544.00
2022-08-17T10:55:07.183Z,20576.00
2022-08-17T10:56:07.170Z,20512.00
2022-08-17T10:57:07.160Z,20416.00
2022-08-17T10:58:07.161Z,20480.00
2022-08-17T10:59:07.138Z,20640.00
2022-08-17T11:00:07.118Z,21024.00
2022-08-17T11:01:07.161Z,21792.00
2022-08-17T11:02:07.109Z,22688.00
2022-08-17T11:03:07.082Z,23104.00
2022-08-17T11:04:07.082Z,22848.00
2022-08-17T11:05:07.074Z,22432.00
2022-08-17T11:06:07.060Z,22048.00
2022-08-17T11:07:07.049Z,21568.00
2022-08-17T11:08:07.039Z,21152.00
2022-08-17T11:09:07.017Z,20672.00
2022-08-17T11:10:07.005Z,19904.00
2022-08-17T11:11:06.993Z,18848.00
2022-08-17T11:12:07.007Z,17632.00
2022-08-17T11:13:06.981Z,16480.00
2022-08-17T11:14:06.959Z,15544.00
2022-08-17T11:15:06.959Z,14920.00
2022-08-17T11:16:08.550Z,14780.00
2022-08-17T11:17:06.926Z,15000.00
2022-08-17T11:18:06.963Z,15448.00
2022-08-17T11:19:06.918Z,15788.00
2022-08-17T11:20:06.904Z,15888.00
2022-08-17T11:21:06.883Z,15908.00
2022-08-17T11:22:06.892Z,15900.00
2022-08-17T11:23:06.879Z,15916.00
2022-08-17T11:24:06.848Z,15988.00
2022-08-17T11:25:06.837Z,16128.00
2022-08-17T11:26:06.825Z,16320.00
2022-08-17T11:27:06.823Z,16512.00
2022-08-17T11:28:06.815Z,16736.00
2022-08-17T11:29:06.799Z,17056.00
2022-08-17T11:30:06.791Z,17344.00
2022-08-17T11:31:06.771Z,17728.00
2022-08-17T11:32:06.769Z,18144.00
2022-08-17T11:33:07.293Z,18432.00
2022-08-17T11:34:06.736Z,18848.00
2022-08-17T11:35:06.723Z,19424.00
2022-08-17T11:36:06.715Z,20128.00
2022-08-17T11:37:06.716Z,20864.00
2022-08-17T11:38:10.841Z,21664.00
2022-08-17T11:39:06.677Z,22560.00
2022-08-17T11:40:06.755Z,23392.00
2022-08-17T11:41:06.657Z,24416.00
2022-08-17T11:42:06.646Z,23904.00
2022-08-17T11:43:06.657Z,24000.00
2022-08-17T11:44:06.622Z,24096.00
2022-08-17T11:45:06.621Z,23808.00
2022-08-17T11:46:06.601Z,23456.00
2022-08-17T11:47:06.598Z,23168.00
2022-08-17T11:48:27.295Z,22752.00
2022-08-17T11:49:06.567Z,22816.00
2022-08-17T11:50:06.568Z,23104.00
2022-08-17T11:51:06.552Z,21792.00
2022-08-17T11:52:06.545Z,21664.00
2022-08-17T11:53:06.524Z,21440.00
2022-08-17T11:54:31.519Z,20928.00
2022-08-17T11:55:31.791Z,18560.00
2022-08-17T11:56:06.492Z,16624.00
2022-08-17T11:57:06.490Z,15128.00
2022-08-17T11:58:06.482Z,13348.00
2022-08-17T11:59:06.482Z,12040.00
2022-08-17T12:00:06.461Z,11156.00
2022-08-17T12:01:06.440Z,10544.00
2022-08-17T12:02:06.434Z,10012.00
2022-08-17T12:03:06.480Z,10992.00
2022-08-17T12:04:06.430Z,12076.00
2022-08-17T12:05:09.632Z,13436.00
2022-08-17T12:06:06.387Z,13848.00
2022-08-17T12:07:06.386Z,13808.00
2022-08-17T12:08:06.367Z,13036.00
2022-08-17T12:09:06.377Z,12000.00
2022-08-17T12:10:06.356Z,11252.00
2022-08-17T12:11:06.343Z,12092.00
2022-08-17T12:12:13.263Z,12400.00
2022-08-17T12:13:06.320Z,12184.00
2022-08-17T12:14:06.326Z,12272.00
2022-08-17T12:15:10.750Z,12496.00
2022-08-17T12:16:06.293Z,13028.00
2022-08-17T12:17:06.272Z,13472.00
2022-08-17T12:18:06.271Z,13512.00
2022-08-17T12:19:06.266Z,12608.00
2022-08-17T12:20:06.253Z,11480.00
2022-08-17T12:21:06.231Z,12804.00
2022-08-17T12:22:06.229Z,12388.00
2022-08-17T12:23:06.212Z,11460.00
2022-08-17T12:24:06.223Z,12308.00
2022-08-17T12:25:06.200Z,12116.00
2022-08-17T12:26:06.201Z,12316.00
2022-08-17T12:27:06.181Z,12336.00
2022-08-17T12:28:07.618Z,12212.00
2022-08-17T12:29:06.173Z,12136.00
2022-08-17T12:30:06.145Z,12212.00
2022-08-17T12:31:06.130Z,12320.00
2022-08-17T12:32:06.130Z,12396.00
2022-08-17T12:33:06.112Z,12428.00
2022-08-17T12:34:06.118Z,12432.00
2022-08-17T12:35:06.100Z,12428.00
2022-08-17T12:36:06.092Z,12408.00
2022-08-17T12:37:06.081Z,12484.00
2022-08-17T12:38:06.061Z,12680.00
2022-08-17T12:39:14.611Z,12916.00
2022-08-17T12:40:06.146Z,13188.00
2022-08-17T12:41:06.044Z,13352.00
2022-08-17T12:42:06.024Z,13432.00
2022-08-17T12:43:06.013Z,13760.00
2022-08-17T12:44:06.027Z,14168.00
2022-08-17T12:45:05.996Z,14488.00
2022-08-17T12:46:13.222Z,14732.00
2022-08-17T12:47:05.976Z,14876.00
2022-08-17T12:48:05.968Z,14900.00
2022-08-17T12:49:05.972Z,15224.00
2022-08-17T12:50:05.974Z,15808.00
2022-08-17T12:51:05.950Z,16020.00
2022-08-17T12:52:05.942Z,15400.00
2022-08-17T12:53:05.922Z,16132.00
2022-08-17T12:54:05.937Z,16900.00
2022-08-17T12:55:05.913Z,17164.00
2022-08-17T12:56:05.896Z,17264.00
2022-08-17T12:57:05.889Z,17532.00
2022-08-17T12:58:05.897Z,17684.00
2022-08-17T12:59:05.882Z,17800.00
2022-08-17T13:00:05.860Z,18208.00
2022-08-17T13:01:05.852Z,18368.00
2022-08-17T13:02:05.905Z,17960.00
2022-08-17T13:03:05.836Z,17468.00
2022-08-17T13:04:05.840Z,17196.00
2022-08-17T13:05:05.825Z,18112.00
2022-08-17T13:06:05.822Z,17176.00
2022-08-17T13:07:05.801Z,15988.00
2022-08-17T13:08:05.793Z,14908.00
2022-08-17T13:09:05.797Z,16332.00
2022-08-17T13:10:05.787Z,16620.00
2022-08-17T13:11:05.777Z,16580.00
2022-08-17T13:12:05.772Z,16640.00
2022-08-17T13:13:05.751Z,18560.00
2022-08-17T13:14:05.759Z,19936.00
2022-08-17T13:15:05.743Z,24096.00
2022-08-17T13:16:05.736Z,24832.00
2022-08-17T13:17:11.060Z,22624.00
2022-08-17T13:18:05.707Z,21056.00
2022-08-17T13:19:05.716Z,20032.00
2022-08-17T13:20:05.699Z,19232.00
2022-08-17T13:21:05.689Z,23104.00
2022-08-17T13:22:05.671Z,24992.00
2022-08-17T13:23:11.478Z,26816.00
2022-08-17T13:24:05.664Z,26688.00
2022-08-17T13:25:05.658Z,30144.00
2022-08-17T13:26:05.633Z,31200.00
2022-08-17T13:27:08.181Z,31936.00
2022-08-17T13:28:05.617Z,32256.00
2022-08-17T13:29:05.628Z,33568.00
2022-08-17T13:30:05.605Z,35328.00
2022-08-17T13:31:05.599Z,32064.00
2022-08-17T13:32:05.583Z,38656.00
2022-08-17T13:33:05.573Z,54720.00
2022-08-17T13:34:05.592Z,52800.00
2022-08-17T13:35:14.461Z,54688.00
2022-08-17T13:36:05.582Z,57344.00
2022-08-17T13:37:05.541Z,27008.00
2022-08-17T13:38:05.544Z,51040.00
2022-08-17T13:39:05.534Z,59456.00
2022-08-17T13:40:05.682Z,58240.00
2022-08-17T13:41:05.515Z,53312.00
2022-08-17T13:42:05.521Z,63808.00
2022-08-17T13:43:05.505Z,72064.00
2022-08-17T13:44:05.495Z,26592.00
2022-08-17T13:45:32.240Z,63360.00
2022-08-17T13:46:05.468Z,40000.00
2022-08-17T13:47:05.463Z,54528.00
2022-08-17T13:48:05.467Z,23936.00
2022-08-17T13:49:05.465Z,20160.00
2022-08-17T13:50:05.453Z,18816.00
2022-08-17T13:51:05.432Z,18208.00
2022-08-17T13:52:05.422Z,18144.00
2022-08-17T13:53:05.424Z,17088.00
2022-08-17T13:56:36.964Z,16864.00
2022-08-17T13:57:16.110Z,17376.00
2022-08-17T13:58:16.106Z,18144.00
2022-08-17T13:59:16.103Z,20160.00
2022-08-17T14:00:16.094Z,21728.00
2022-08-17T14:01:16.122Z,31040.00
2022-08-17T14:02:16.066Z,21888.00
2022-08-17T14:03:16.061Z,20832.00
2022-08-17T14:04:16.058Z,19552.00
2022-08-17T14:05:16.062Z,18400.00
2022-08-17T14:06:49.325Z,17248.00
2022-08-17T14:26:57.090Z,15800.00
2022-08-17T14:27:57.417Z,16832.00
2022-08-17T14:28:57.203Z,17824.00
2022-08-17T14:29:57.054Z,19648.00
2022-08-17T14:30:57.047Z,18720.00
2022-08-17T14:31:57.032Z,19168.00
2022-08-17T14:32:57.013Z,20480.00
2022-08-17T14:33:57.009Z,25856.00
2022-08-17T14:34:57.013Z,62720.00
2022-08-17T14:35:56.991Z,62976.00
2022-08-17T14:36:56.969Z,61792.00
2022-08-17T14:37:56.965Z,57696.00
2022-08-17T14:38:56.948Z,56160.00
2022-08-17T14:39:57.075Z,55456.00
2022-08-17T14:40:56.940Z,55744.00
2022-08-17T14:41:56.929Z,56736.00
2022-08-17T14:42:56.917Z,56960.00
2022-08-17T14:43:56.923Z,56192.00
2022-08-17T14:44:56.910Z,54528.00
2022-08-17T14:45:56.882Z,51104.00
2022-08-17T14:46:56.903Z,52032.00
2022-08-17T14:47:56.877Z,16364.00
2022-08-17T14:48:57.627Z,14200.00
2022-08-17T14:49:56.863Z,15876.00
2022-08-17T14:50:56.864Z,15920.00
2022-08-17T14:51:56.841Z,20544.00
2022-08-17T14:52:58.012Z,40416.00
2022-08-17T14:53:56.816Z,48672.00
2022-08-17T14:54:56.836Z,38144.00
2022-08-17T14:55:56.812Z,38624.00
2022-08-17T14:57:22.635Z,26368.00
2022-08-17T14:57:56.794Z,39616.00
2022-08-17T14:58:56.788Z,47360.00
2022-08-17T14:59:56.785Z,35680.00
2022-08-17T15:00:56.766Z,50304.00
2022-08-17T15:01:56.755Z,50528.00
2022-08-17T15:02:56.749Z,51520.00
2022-08-17T15:03:56.734Z,51520.00
2022-08-17T15:04:56.755Z,50368.00
2022-08-17T15:05:56.730Z,50304.00
2022-08-17T15:06:56.726Z,51104.00
2022-08-17T15:07:56.706Z,53888.00
2022-08-17T15:08:56.711Z,57568.00
2022-08-17T15:09:56.693Z,59872.00
2022-08-17T15:10:56.709Z,57184.00
2022-08-17T15:11:56.675Z,52672.00
2022-08-17T15:12:56.681Z,50624.00
2022-08-17T15:13:56.661Z,49568.00
2022-08-17T15:14:56.657Z,50496.00
2022-08-17T15:15:56.693Z,46464.00
2022-08-17T15:16:56.654Z,46912.00
2022-08-17T15:17:57.071Z,29760.00
2022-08-17T15:18:56.640Z,17056.00
2022-08-17T15:19:56.650Z,15776.00
2022-08-17T15:20:56.643Z,16704.00
2022-08-17T15:21:56.609Z,15980.00
2022-08-17T15:22:56.616Z,16504.00
2022-08-17T15:25:08.540Z,43872.00
2022-08-17T15:26:08.527Z,44832.00
2022-08-17T15:27:08.509Z,46176.00
2022-08-17T15:28:08.509Z,47200.00
2022-08-17T15:29:08.490Z,47136.00
2022-08-17T15:30:08.516Z,46944.00
2022-08-17T15:31:08.505Z,45952.00
2022-08-17T15:32:08.480Z,46016.00
2022-08-17T15:33:08.468Z,45408.00
2022-08-17T15:34:08.721Z,45280.00
2022-08-17T15:35:08.449Z,44320.00
2022-08-17T15:36:08.459Z,42560.00
2022-08-17T15:37:08.436Z,41696.00
2022-08-17T15:38:11.989Z,42208.00
2022-08-17T15:39:08.437Z,41984.00
2022-08-17T15:40:08.477Z,42752.00
2022-08-17T15:41:08.432Z,42976.00
2022-08-17T15:42:08.414Z,42112.00
2022-08-17T15:43:08.406Z,41024.00
2022-08-17T15:44:08.388Z,40896.00
2022-08-17T15:45:08.384Z,41120.00
2022-08-17T15:46:08.401Z,40128.00
2022-08-17T15:47:08.377Z,39200.00
2022-08-17T15:48:08.374Z,38208.00
2022-08-17T15:49:08.363Z,38368.00
2022-08-17T15:50:08.356Z,36000.00
2022-08-17T15:51:08.383Z,34464.00
2022-08-17T15:52:08.354Z,35840.00
2022-08-17T15:53:08.360Z,37152.00
2022-08-17T15:54:18.629Z,35520.00
2022-08-17T15:55:08.337Z,31104.00
2022-08-17T15:56:08.334Z,27808.00
2022-08-17T15:57:08.330Z,33376.00
2022-08-17T15:58:08.321Z,32832.00
2022-08-17T15:59:08.316Z,32480.00
2022-08-17T16:00:08.308Z,33312.00
2022-08-17T16:01:16.741Z,34496.00
2022-08-17T16:03:13.293Z,25376.00
2022-08-17T16:03:46.979Z,31104.00
2022-08-17T16:04:26.636Z,27296.00
2022-08-17T16:05:10.075Z,21856.00
2022-08-17T16:06:08.289Z,30176.00
2022-08-17T16:07:08.274Z,33312.00
2022-08-17T16:08:08.270Z,32896.00
2022-08-17T16:09:08.250Z,32896.00
2022-08-17T16:10:08.255Z,32960.00
2022-08-17T16:11:08.262Z,32288.00
2022-08-17T16:12:08.234Z,31904.00
2022-08-17T16:13:17.605Z,31712.00
2022-08-17T16:14:08.221Z,31296.00
2022-08-17T16:15:08.216Z,29216.00
2022-08-17T16:16:08.227Z,26016.00
2022-08-17T16:17:38.990Z,28128.00
2022-08-17T16:18:21.031Z,27648.00
2022-08-17T16:19:21.022Z,27552.00
2022-08-17T16:20:21.144Z,27840.00
2022-08-17T16:21:21.026Z,27200.00
2022-08-17T16:22:21.013Z,26848.00
2022-08-17T16:23:21.008Z,26720.00
2022-08-17T16:24:20.994Z,26432.00
2022-08-17T16:25:21.019Z,26240.00
2022-08-17T16:26:20.977Z,26240.00
2022-08-17T16:27:20.987Z,26144.00
2022-08-17T16:28:20.971Z,25824.00
2022-08-17T16:29:20.980Z,25248.00
2022-08-17T16:30:20.985Z,24800.00
2022-08-17T16:31:20.978Z,25248.00
2022-08-17T16:32:20.960Z,25376.00
2022-08-17T16:33:20.950Z,25024.00
2022-08-17T16:34:20.991Z,24608.00
2022-08-17T16:35:20.951Z,24480.00
2022-08-17T16:36:20.931Z,24192.00
2022-08-17T16:37:20.926Z,24032.00
2022-08-17T16:38:20.918Z,23840.00
2022-08-17T16:39:20.914Z,23232.00
2022-08-17T16:40:20.921Z,23168.00
2022-08-17T16:41:20.895Z,22880.00
2022-08-17T16:42:20.898Z,22624.00
2022-08-17T16:43:20.884Z,22368.00
2022-08-17T16:44:20.881Z,21856.00
2022-08-17T16:45:20.894Z,21856.00
2022-08-17T16:46:20.876Z,21504.00
2022-08-17T16:47:20.872Z,20992.00
2022-08-17T16:48:20.856Z,20416.00
2022-08-17T16:49:25.799Z,20064.00
2022-08-17T16:50:20.855Z,19744.00
2022-08-17T16:51:20.850Z,19264.00
2022-08-17T16:52:32.373Z,19456.00
2022-08-17T16:53:20.840Z,18624.00
2022-08-17T16:54:20.824Z,18208.00
2022-08-17T16:55:20.831Z,18112.00
2022-08-17T16:56:20.820Z,16288.00
2022-08-17T16:57:20.805Z,15104.00
2022-08-17T16:58:20.800Z,14816.00
2022-08-17T16:59:31.071Z,13728.00
2022-08-17T17:00:20.837Z,13376.00
2022-08-17T17:01:20.844Z,13504.00
2022-08-17T17:02:20.775Z,14560.00
2022-08-17T17:03:20.830Z,13504.00
2022-08-17T17:04:20.768Z,13196.00
2022-08-17T17:05:20.754Z,12644.00
2022-08-17T17:06:20.757Z,8604.00
2022-08-17T17:07:20.748Z,8152.00
2022-08-17T17:08:20.739Z,7560.00
2022-08-17T17:09:20.734Z,7304.00
2022-08-17T17:10:20.725Z,7212.00
2022-08-17T17:11:20.718Z,7104.00
2022-08-17T17:12:21.003Z,7084.00
2022-08-17T17:13:20.700Z,6980.00
2022-08-17T17:14:20.689Z,6840.00
2022-08-17T17:15:22.295Z,6784.00
2022-08-17T17:16:20.687Z,6768.00
